createdAt,value
2016-04-08T00:00:28.287Z,0
2016-04-08T00:01:28.290Z,0
2016-04-08T00:02:28.339Z,0
2016-04-08T00:03:28.342Z,0
2016-04-08T00:04:28.360Z,0
2016-04-08T00:05:28.379Z,0
2016-04-08T00:06:28.396Z,0
2016-04-08T00:07:28.415Z,0
2016-04-08T00:08:28.434Z,0
2016-04-08T00:09:28.468Z,0
2016-04-08T00:10:28.486Z,0
2016-04-08T00:11:28.504Z,0
2016-04-08T00:12:28.523Z,0
2016-04-08T00:13:28.545Z,0
2016-04-08T00:14:28.547Z,0
2016-04-08T00:15:28.582Z,0
2016-04-08T00:16:28.615Z,0
2016-04-08T00:17:28.634Z,0
2016-04-08T00:18:28.637Z,0
2016-04-08T00:19:28.671Z,0
2016-04-08T00:20:28.704Z,0
2016-04-08T00:21:28.707Z,0
2016-04-08T00:22:28.726Z,0
2016-04-08T00:23:28.775Z,0
2016-04-08T00:24:28.778Z,0
2016-04-08T00:25:28.780Z,0
2016-04-08T00:26:28.798Z,0
2016-04-08T00:27:28.832Z,0
2016-04-08T00:28:28.866Z,0
2016-04-08T00:29:28.853Z,0
2016-04-08T00:30:28.886Z,0
2016-04-08T00:31:28.889Z,0
2016-04-08T00:32:28.939Z,0
2016-04-08T00:33:28.972Z,0
2016-04-08T00:34:28.992Z,0
2016-04-08T00:35:28.994Z,0
2016-04-08T00:36:29.028Z,0
2016-04-08T00:37:29.016Z,0
2016-04-08T00:38:29.033Z,0
2016-04-08T00:39:29.068Z,0
2016-04-08T00:40:29.086Z,0
2016-04-08T00:41:29.104Z,0
2016-04-08T00:42:29.122Z,0
2016-04-08T00:43:29.140Z,0
2016-04-08T00:44:29.174Z,0
2016-04-08T00:45:29.193Z,0
2016-04-08T00:46:29.195Z,0
2016-04-08T00:47:29.229Z,0
2016-04-08T00:48:29.232Z,0
2016-04-08T00:49:29.266Z,0
2016-04-08T00:50:29.285Z,0
2016-04-08T00:51:29.318Z,0
2016-04-08T00:52:29.321Z,0
2016-04-08T00:53:29.355Z,0
2016-04-08T00:54:30.951Z,0
2016-04-08T00:55:29.376Z,0
2016-04-08T00:56:29.425Z,0
2016-04-08T00:57:29.429Z,0
2016-04-08T00:58:29.431Z,0
2016-04-08T00:59:29.465Z,0
2016-04-08T01:00:29.483Z,0
2016-04-08T01:01:29.502Z,0
2016-04-08T01:02:29.536Z,0
2016-04-08T01:03:29.538Z,0
2016-04-08T01:04:29.556Z,0
2016-04-08T01:05:29.591Z,0
2016-04-08T01:06:29.593Z,0
2016-04-08T01:07:29.643Z,0
2016-04-08T01:08:29.646Z,0
2016-04-08T01:09:29.679Z,0
2016-04-08T01:10:29.527Z,0
2016-04-08T01:11:29.716Z,0
2016-04-08T01:12:29.750Z,0
2016-04-08T01:13:29.738Z,0
2016-04-08T01:14:29.755Z,0
2016-04-08T01:15:29.774Z,0
2016-04-08T01:16:29.792Z,0
2016-04-08T01:17:29.841Z,0
2016-04-08T01:18:29.844Z,0
2016-04-08T01:19:29.862Z,0
2016-04-08T01:20:29.881Z,0
2016-04-08T01:21:29.898Z,0
2016-04-08T01:22:29.917Z,0
2016-04-08T01:23:29.936Z,0
2016-04-08T01:24:29.954Z,0
2016-04-08T01:25:29.973Z,0
2016-04-08T01:26:29.990Z,0
2016-04-08T01:27:29.993Z,0
2016-04-08T01:28:30.042Z,0
2016-04-08T01:29:30.061Z,0
2016-04-08T01:30:30.080Z,0
2016-04-08T01:31:30.097Z,0
2016-04-08T01:32:30.319Z,0
2016-04-08T01:33:30.134Z,0
2016-04-08T01:34:30.153Z,0
2016-04-08T01:35:30.172Z,0
2016-04-08T01:36:30.190Z,0
2016-04-08T01:37:30.224Z,0
2016-04-08T01:38:30.242Z,0
2016-04-08T01:39:30.260Z,0
2016-04-08T01:40:30.263Z,0
2016-04-08T01:41:30.297Z,0
2016-04-08T01:42:30.315Z,0
2016-04-08T01:43:30.318Z,0
2016-04-08T01:44:30.367Z,0
2016-04-08T01:45:30.370Z,0
2016-04-08T01:46:30.388Z,0
2016-04-08T01:47:30.438Z,0
2016-04-08T01:48:30.457Z,0
2016-04-08T01:49:30.459Z,0
2016-04-08T01:50:30.462Z,0
2016-04-08T01:51:30.495Z,0
2016-04-08T01:52:30.545Z,0
2016-04-08T01:53:30.548Z,0
2016-04-08T01:54:30.550Z,0
2016-04-08T01:55:30.553Z,0
2016-04-08T01:56:30.586Z,0
2016-04-08T01:57:30.636Z,0
2016-04-08T01:58:30.623Z,0
2016-04-08T01:59:30.642Z,0
2016-04-08T02:00:30.676Z,0
2016-04-08T02:01:30.678Z,0
2016-04-08T02:02:30.712Z,0
2016-04-08T02:03:30.731Z,0
2016-04-08T02:04:30.750Z,0
2016-04-08T02:05:30.752Z,0
2016-04-08T02:06:30.802Z,0
2016-04-08T02:07:30.804Z,0
2016-04-08T02:08:30.820Z,0
2016-04-08T02:09:30.854Z,0
2016-04-08T02:10:30.904Z,0
2016-04-08T02:11:30.892Z,0
2016-04-08T02:12:30.925Z,0
2016-04-08T02:13:30.912Z,0
2016-04-08T02:14:30.946Z,0
2016-04-08T02:15:30.964Z,0
2016-04-08T02:16:30.998Z,0
2016-04-08T02:17:31.000Z,0
2016-04-08T02:18:31.035Z,0
2016-04-08T02:19:31.052Z,0
2016-04-08T02:20:31.071Z,0
2016-04-08T02:21:31.090Z,0
2016-04-08T02:22:31.107Z,0
2016-04-08T02:23:31.126Z,0
2016-04-08T02:24:31.144Z,0
2016-04-08T02:25:31.179Z,0
2016-04-08T02:26:31.197Z,0
2016-04-08T02:27:31.216Z,0
2016-04-08T02:28:31.327Z,0
2016-04-08T02:29:31.237Z,0
2016-04-08T02:30:31.254Z,0
2016-04-08T02:31:31.273Z,0
2016-04-08T02:32:31.306Z,0
2016-04-08T02:33:31.309Z,0
2016-04-08T02:34:31.343Z,0
2016-04-08T02:35:31.378Z,0
2016-04-08T02:36:31.381Z,0
2016-04-08T02:37:31.398Z,0
2016-04-08T02:38:30.667Z,0
2016-04-08T02:39:31.435Z,0
2016-04-08T02:40:31.469Z,0
2016-04-08T02:41:31.472Z,0
2016-04-08T02:42:31.489Z,0
2016-04-08T02:43:31.508Z,0
2016-04-08T02:44:31.542Z,0
2016-04-08T02:45:31.607Z,0
2016-04-08T02:46:31.563Z,0
2016-04-08T02:47:31.597Z,0
2016-04-08T02:48:31.616Z,0
2016-04-08T02:49:31.633Z,0
2016-04-08T02:50:31.652Z,0
2016-04-08T02:51:31.686Z,0
2016-04-08T02:52:31.689Z,0
2016-04-08T02:53:31.707Z,0
2016-04-08T02:54:31.741Z,0
2016-04-08T02:55:31.744Z,0
2016-04-08T02:56:31.762Z,0
2016-04-08T02:57:31.780Z,0
2016-04-08T02:58:31.610Z,0
2016-04-08T02:59:31.832Z,0
2016-04-08T03:00:31.851Z,0
2016-04-08T03:01:31.901Z,0
2016-04-08T03:02:31.888Z,0
2016-04-08T03:03:31.906Z,0
2016-04-08T03:04:31.924Z,0
2016-04-08T03:05:31.942Z,0
2016-04-08T03:06:31.961Z,0
2016-04-08T03:07:31.979Z,0
2016-04-08T03:08:31.997Z,0
2016-04-08T03:09:32.000Z,0
2016-04-08T03:10:32.033Z,0
2016-04-08T03:11:32.067Z,0
2016-04-08T03:12:32.070Z,0
2016-04-08T03:13:31.979Z,0
2016-04-08T03:14:32.108Z,0
2016-04-08T03:15:32.141Z,0
2016-04-08T03:16:32.175Z,0
2016-04-08T03:17:32.178Z,0
2016-04-08T03:18:32.196Z,0
2016-04-08T03:19:32.214Z,0
2016-04-08T03:20:32.233Z,0
2016-04-08T03:21:31.501Z,0
2016-04-08T03:22:32.269Z,0
2016-04-08T03:23:32.303Z,0
2016-04-08T03:24:32.353Z,0
2016-04-08T03:25:32.325Z,0
2016-04-08T03:26:32.343Z,0
2016-04-08T03:27:32.377Z,0
2016-04-08T03:28:32.489Z,0
2016-04-08T03:29:32.413Z,0
2016-04-08T03:30:32.416Z,0
2016-04-08T03:31:32.449Z,0
2016-04-08T03:32:32.468Z,0
2016-04-08T03:33:32.501Z,0
2016-04-08T03:34:32.504Z,0
2016-04-08T03:35:32.556Z,0
2016-04-08T03:36:32.603Z,0
2016-04-08T03:37:32.666Z,0
2016-04-08T03:38:32.743Z,0
2016-04-08T03:39:32.805Z,0
2016-04-08T03:40:32.846Z,0
2016-04-08T03:41:32.895Z,0
2016-04-08T03:42:32.929Z,0
2016-04-08T03:43:33.135Z,0
2016-04-08T03:44:32.982Z,0
2016-04-08T03:45:33.008Z,0
2016-04-08T03:46:33.032Z,0
2016-04-08T03:47:33.070Z,0
2016-04-08T03:48:33.094Z,0
2016-04-08T03:49:33.117Z,0
2016-04-08T03:50:33.139Z,0
2016-04-08T03:51:33.160Z,0
2016-04-08T03:52:33.180Z,0
2016-04-08T03:53:33.200Z,0
2016-04-08T03:54:33.236Z,0
2016-04-08T03:55:33.256Z,0
2016-04-08T03:56:33.259Z,0
2016-04-08T03:57:33.277Z,0
2016-04-08T03:58:33.391Z,0
2016-04-08T03:59:33.331Z,0
2016-04-08T04:00:33.334Z,0
2016-04-08T04:01:33.368Z,0
2016-04-08T04:02:33.372Z,0
2016-04-08T04:03:33.391Z,0
2016-04-08T04:04:33.425Z,0
2016-04-08T04:05:33.444Z,0
2016-04-08T04:06:33.462Z,0
2016-04-08T04:07:33.465Z,0
2016-04-08T04:08:33.498Z,0
2016-04-08T04:09:33.501Z,0
2016-04-08T04:10:33.551Z,0
2016-04-08T04:11:33.553Z,0
2016-04-08T04:12:33.571Z,0
2016-04-08T04:13:33.590Z,0
2016-04-08T04:14:33.608Z,0
2016-04-08T04:15:33.627Z,0
2016-04-08T04:16:33.645Z,0
2016-04-08T04:17:33.663Z,0
2016-04-08T04:18:33.682Z,0
2016-04-08T04:19:33.715Z,0
2016-04-08T04:20:33.718Z,0
2016-04-08T04:21:33.752Z,0
2016-04-08T04:22:33.755Z,0
2016-04-08T04:23:33.773Z,0
2016-04-08T04:24:33.823Z,0
2016-04-08T04:25:33.825Z,0
2016-04-08T04:26:33.828Z,0
2016-04-08T04:27:33.861Z,0
2016-04-08T04:28:33.880Z,0
2016-04-08T04:29:33.899Z,0
2016-04-08T04:30:33.917Z,0
2016-04-08T04:31:33.936Z,0
2016-04-08T04:32:33.953Z,0
2016-04-08T04:33:33.972Z,0
2016-04-08T04:34:33.974Z,0
2016-04-08T04:35:34.008Z,0
2016-04-08T04:36:34.027Z,0
2016-04-08T04:37:34.045Z,0
2016-04-08T04:38:34.063Z,0
2016-04-08T04:39:34.082Z,0
2016-04-08T04:40:34.100Z,0
2016-04-08T04:41:34.119Z,0
2016-04-08T04:42:34.121Z,0
2016-04-08T04:43:34.155Z,0
2016-04-08T04:44:34.173Z,0
2016-04-08T04:45:34.192Z,0
2016-04-08T04:46:34.210Z,0
2016-04-08T04:47:34.228Z,0
2016-04-08T04:48:34.262Z,0
2016-04-08T04:49:32.842Z,0
2016-04-08T04:50:34.298Z,0
2016-04-08T04:51:34.317Z,0
2016-04-08T04:52:34.320Z,0
2016-04-08T04:53:34.353Z,0
2016-04-08T04:54:34.594Z,0
2016-04-08T04:55:34.390Z,0
2016-04-08T04:56:34.409Z,0
2016-04-08T04:57:34.443Z,0
2016-04-08T04:58:34.445Z,0
2016-04-08T04:59:34.308Z,0
2016-04-08T05:00:34.482Z,0
2016-04-08T05:01:34.500Z,0
2016-04-08T05:02:34.534Z,0
2016-04-08T05:03:34.536Z,0
2016-04-08T05:04:34.555Z,0
2016-04-08T05:05:34.573Z,0
2016-04-08T05:06:34.591Z,0
2016-04-08T05:07:34.610Z,0
2016-04-08T05:08:34.613Z,0
2016-04-08T05:09:34.649Z,0
2016-04-08T05:10:34.683Z,0
2016-04-08T05:11:34.686Z,0
2016-04-08T05:12:34.720Z,0
2016-04-08T05:13:34.723Z,0
2016-04-08T05:14:34.757Z,0
2016-04-08T05:15:34.759Z,0
2016-04-08T05:16:34.779Z,0
2016-04-08T05:17:34.812Z,0
2016-04-08T05:18:34.830Z,0
2016-04-08T05:19:34.833Z,0
2016-04-08T05:20:35.054Z,0
2016-04-08T05:21:34.885Z,0
2016-04-08T05:22:34.903Z,0
2016-04-08T05:23:34.906Z,0
2016-04-08T05:24:34.956Z,0
2016-04-08T05:25:34.973Z,0
2016-04-08T05:26:34.976Z,0
2016-04-08T05:27:34.258Z,0
2016-04-08T05:28:35.010Z,0
2016-04-08T05:29:35.028Z,0
2016-04-08T05:30:35.047Z,0
2016-04-08T05:31:35.066Z,0
2016-04-08T05:32:35.084Z,0
2016-04-08T05:33:35.117Z,0
2016-04-08T05:34:35.136Z,0
2016-04-08T05:35:35.139Z,0
2016-04-08T05:36:35.158Z,0
2016-04-08T05:37:35.175Z,0
2016-04-08T05:38:35.194Z,0
2016-04-08T05:39:35.227Z,0
2016-04-08T05:40:35.230Z,0
2016-04-08T05:41:35.249Z,0
2016-04-08T05:42:35.266Z,0
2016-04-08T05:43:35.285Z,0
2016-04-08T05:44:35.303Z,0
2016-04-08T05:45:35.321Z,0
2016-04-08T05:46:35.356Z,0
2016-04-08T05:47:35.358Z,0
2016-04-08T05:48:35.377Z,0
2016-04-08T05:49:35.395Z,0
2016-04-08T05:50:35.429Z,0
2016-04-08T05:51:35.448Z,5
2016-04-08T05:52:34.700Z,5
2016-04-08T05:53:35.468Z,5
2016-04-08T05:54:35.533Z,5
2016-04-08T05:55:35.505Z,5
2016-04-08T05:56:35.523Z,5
2016-04-08T05:57:35.681Z,5
2016-04-08T05:58:35.575Z,5
2016-04-08T05:59:35.594Z,5
2016-04-08T06:00:35.597Z,5
2016-04-08T06:01:35.631Z,5
2016-04-08T06:02:35.649Z,5
2016-04-08T06:03:35.667Z,5
2016-04-08T06:04:35.686Z,5
2016-04-08T06:05:35.688Z,5
2016-04-08T06:06:35.722Z,5
2016-04-08T06:07:35.741Z,5
2016-04-08T06:08:35.758Z,5
2016-04-08T06:09:35.793Z,5
2016-04-08T06:10:35.810Z,5
2016-04-08T06:11:35.813Z,5
2016-04-08T06:12:35.847Z,5
2016-04-08T06:13:35.850Z,5
2016-04-08T06:14:35.884Z,5
2016-04-08T06:15:35.888Z,5
2016-04-08T06:16:35.921Z,5
2016-04-08T06:17:35.955Z,5
2016-04-08T06:18:35.942Z,5
2016-04-08T06:19:35.960Z,5
2016-04-08T06:20:35.979Z,5
2016-04-08T06:21:35.996Z,5
2016-04-08T06:22:36.234Z,5
2016-04-08T06:23:36.049Z,5
2016-04-08T06:24:36.051Z,5
2016-04-08T06:25:36.132Z,5
2016-04-08T06:26:36.103Z,5
2016-04-08T06:27:36.169Z,5
2016-04-08T06:28:36.125Z,5
2016-04-08T06:29:36.142Z,5
2016-04-08T06:30:36.161Z,5
2016-04-08T06:31:36.195Z,5
2016-04-08T06:32:36.214Z,5
2016-04-08T06:33:36.233Z,5
2016-04-08T06:34:36.236Z,5
2016-04-08T06:35:35.519Z,5
2016-04-08T06:36:36.287Z,5
2016-04-08T06:37:36.306Z,5
2016-04-08T06:38:36.309Z,5
2016-04-08T06:39:36.342Z,5
2016-04-08T06:40:36.345Z,5
2016-04-08T06:41:36.380Z,5
2016-04-08T06:42:36.382Z,5
2016-04-08T06:43:36.400Z,5
2016-04-08T06:44:36.450Z,5
2016-04-08T06:45:36.452Z,5
2016-04-08T06:46:36.533Z,5
2016-04-08T06:47:36.489Z,5
2016-04-08T06:48:36.508Z,5
2016-04-08T06:49:36.526Z,5
2016-04-08T06:50:36.544Z,5
2016-04-08T06:51:36.562Z,5
2016-04-08T06:52:36.580Z,5
2016-04-08T06:53:36.598Z,5
2016-04-08T06:54:36.617Z,5
2016-04-08T06:55:36.635Z,5
2016-04-08T06:56:36.654Z,5
2016-04-08T06:57:36.656Z,5
2016-04-08T06:58:36.690Z,5
2016-04-08T06:59:36.724Z,5
2016-04-08T07:00:36.717Z,5
2016-04-08T07:01:36.734Z,5
2016-04-08T07:02:36.769Z,5
2016-04-08T07:03:36.786Z,5
2016-04-08T07:04:36.805Z,5
2016-04-08T07:05:36.822Z,5
2016-04-08T07:06:36.841Z,5
2016-04-08T07:07:36.875Z,5
2016-04-08T07:08:36.926Z,5
2016-04-08T07:09:37.100Z,5
2016-04-08T07:10:36.917Z,5
2016-04-08T07:11:36.934Z,5
2016-04-08T07:12:36.953Z,5
2016-04-08T07:13:36.970Z,5
2016-04-08T07:14:37.178Z,5
2016-04-08T07:15:37.008Z,5
2016-04-08T07:16:37.042Z,5
2016-04-08T07:17:37.044Z,5
2016-04-08T07:18:37.078Z,5
2016-04-08T07:19:37.081Z,5
2016-04-08T07:20:37.146Z,5
2016-04-08T07:21:36.961Z,5
2016-04-08T07:22:37.151Z,5
2016-04-08T07:23:37.170Z,5
2016-04-08T07:24:37.204Z,5
2016-04-08T07:25:37.191Z,5
2016-04-08T07:26:37.241Z,5
2016-04-08T07:27:37.243Z,5
2016-04-08T07:28:37.293Z,5
2016-04-08T07:29:37.279Z,5
2016-04-08T07:30:37.299Z,5
2016-04-08T07:31:37.332Z,5
2016-04-08T07:32:37.350Z,5
2016-04-08T07:33:37.384Z,5
2016-04-08T07:34:37.371Z,5
2016-04-08T07:35:37.421Z,5
2016-04-08T07:36:37.407Z,5
2016-04-08T07:37:37.457Z,5
2016-04-08T07:38:37.460Z,5
2016-04-08T07:39:37.463Z,5
2016-04-08T07:40:37.497Z,5
2016-04-08T07:41:37.531Z,5
2016-04-08T07:42:37.565Z,5
2016-04-08T07:43:37.552Z,5
2016-04-08T07:44:37.711Z,5
2016-04-08T07:45:37.588Z,5
2016-04-08T07:46:37.622Z,5
2016-04-08T07:47:37.641Z,5
2016-04-08T07:48:37.659Z,5
2016-04-08T07:49:37.506Z,5
2016-04-08T07:50:37.681Z,5
2016-04-08T07:51:37.558Z,5
2016-04-08T07:52:37.935Z,5
2016-04-08T07:53:38.064Z,5
2016-04-08T07:54:37.628Z,5
2016-04-08T07:55:37.678Z,5
2016-04-08T07:56:38.258Z,5
2016-04-08T07:57:37.824Z,5
2016-04-08T07:58:37.842Z,5
2016-04-08T07:59:37.985Z,5
2016-04-08T08:00:38.082Z,5
2016-04-08T08:01:37.913Z,5
2016-04-08T08:02:37.915Z,5
2016-04-08T08:03:37.949Z,5
2016-04-08T08:04:37.967Z,5
2016-04-08T08:05:37.986Z,5
2016-04-08T08:06:38.613Z,5
2016-04-08T08:07:38.054Z,5
2016-04-08T08:08:38.056Z,5
2016-04-08T08:09:38.059Z,5
2016-04-08T08:10:38.093Z,5
2016-04-08T08:11:38.298Z,5
2016-04-08T08:12:38.584Z,5
2016-04-08T08:13:38.132Z,5
2016-04-08T08:14:38.307Z,5
2016-04-08T08:15:38.419Z,5
2016-04-08T08:16:38.219Z,5
2016-04-08T08:17:38.237Z,5
2016-04-08T08:18:38.255Z,5
2016-04-08T08:19:38.273Z,5
2016-04-08T08:20:38.292Z,5
2016-04-08T08:21:38.311Z,5
2016-04-08T08:22:38.328Z,5
2016-04-08T08:23:38.363Z,5
2016-04-08T08:24:38.834Z,5
2016-04-08T08:25:38.399Z,5
2016-04-08T08:26:38.402Z,5
2016-04-08T08:27:38.624Z,5
2016-04-08T08:28:38.455Z,5
2016-04-08T08:29:38.613Z,5
2016-04-08T08:30:38.349Z,5
2016-04-08T08:31:38.510Z,5
2016-04-08T08:32:38.527Z,5
2016-04-08T08:33:38.561Z,5
2016-04-08T08:34:38.580Z,5
2016-04-08T08:35:38.582Z,5
2016-04-08T08:36:38.616Z,5
2016-04-08T08:37:38.635Z,5
2016-04-08T08:38:38.637Z,5
2016-04-08T08:39:38.671Z,5
2016-04-08T08:40:38.689Z,5
2016-04-08T08:41:38.551Z,5
2016-04-08T08:42:38.742Z,10
2016-04-08T08:43:38.744Z,10
2016-04-08T08:44:38.825Z,10
2016-04-08T08:45:38.781Z,10
2016-04-08T08:46:39.018Z,10
2016-04-08T08:47:38.833Z,10
2016-04-08T08:48:38.883Z,10
2016-04-08T08:49:38.870Z,10
2016-04-08T08:50:38.888Z,10
2016-04-08T08:51:38.922Z,10
2016-04-08T08:52:38.940Z,10
2016-04-08T08:53:39.522Z,10
2016-04-08T08:54:38.977Z,10
2016-04-08T08:55:39.230Z,10
2016-04-08T08:56:39.045Z,10
2016-04-08T08:57:39.032Z,10
2016-04-08T08:58:39.066Z,10
2016-04-08T08:59:39.163Z,10
2016-04-08T09:00:39.118Z,10
2016-04-08T09:01:39.121Z,10
2016-04-08T09:02:39.154Z,10
2016-04-08T09:03:39.189Z,10
2016-04-08T09:04:39.285Z,10
2016-04-08T09:05:39.210Z,10
2016-04-08T09:06:39.229Z,10
2016-04-08T09:07:39.262Z,10
2016-04-08T09:08:39.280Z,10
2016-04-08T09:09:39.282Z,10
2016-04-08T09:10:39.536Z,10
2016-04-08T09:11:39.757Z,10
2016-04-08T09:12:39.353Z,10
2016-04-08T09:13:39.372Z,10
2016-04-08T09:14:39.609Z,10
2016-04-08T09:15:39.440Z,10
2016-04-08T09:16:39.834Z,10
2016-04-08T09:17:40.336Z,10
2016-04-08T09:18:39.478Z,10
2016-04-08T09:19:39.528Z,10
2016-04-08T09:20:39.828Z,10
2016-04-08T09:21:39.675Z,10
2016-04-08T09:22:39.896Z,10
2016-04-08T09:23:39.586Z,10
2016-04-08T09:24:39.636Z,10
2016-04-08T09:25:39.638Z,10
2016-04-08T09:26:39.689Z,10
2016-04-08T09:27:39.691Z,10
2016-04-08T09:28:39.708Z,10
2016-04-08T09:29:39.619Z,10
2016-04-08T09:30:39.746Z,10
2016-04-08T09:31:39.780Z,10
2016-04-08T09:32:39.829Z,10
2016-04-08T09:33:39.816Z,10
2016-04-08T09:34:39.960Z,10
2016-04-08T09:35:39.853Z,10
2016-04-08T09:36:39.888Z,15
2016-04-08T09:37:39.921Z,15
2016-04-08T09:38:39.923Z,15
2016-04-08T09:39:39.957Z,15
2016-04-08T09:40:39.976Z,15
2016-04-08T09:41:39.993Z,15
2016-04-08T09:42:40.012Z,15
2016-04-08T09:43:40.078Z,15
2016-04-08T09:44:40.080Z,15
2016-04-08T09:45:40.098Z,15
2016-04-08T09:46:40.117Z,15
2016-04-08T09:47:40.135Z,15
2016-04-08T09:48:40.153Z,15
2016-04-08T09:49:40.187Z,15
2016-04-08T09:50:40.487Z,15
2016-04-08T09:51:40.208Z,15
2016-04-08T09:52:40.258Z,15
2016-04-08T09:53:40.323Z,15
2016-04-08T09:54:40.294Z,15
2016-04-08T09:55:40.314Z,15
2016-04-08T09:56:40.331Z,15
2016-04-08T09:57:40.353Z,15
2016-04-08T09:58:40.918Z,15
2016-04-08T09:59:40.406Z,15
2016-04-08T10:00:40.424Z,15
2016-04-08T10:01:40.443Z,15
2016-04-08T10:02:40.461Z,15
2016-04-08T10:03:40.495Z,15
2016-04-08T10:04:40.670Z,15
2016-04-08T10:05:40.547Z,15
2016-04-08T10:06:40.550Z,15
2016-04-08T10:07:40.583Z,15
2016-04-08T10:08:40.617Z,15
2016-04-08T10:09:40.620Z,15
2016-04-08T10:10:40.669Z,15
2016-04-08T10:11:40.876Z,15
2016-04-08T10:12:40.722Z,15
2016-04-08T10:13:40.724Z,20
2016-04-08T10:14:40.743Z,20
2016-04-08T10:15:40.761Z,20
2016-04-08T10:16:40.842Z,25
2016-04-08T10:17:40.813Z,20
2016-04-08T10:18:40.847Z,20
2016-04-08T10:19:40.850Z,20
2016-04-08T10:20:40.884Z,20
2016-04-08T10:21:40.763Z,20
2016-04-08T10:22:40.921Z,20
2016-04-08T10:23:40.970Z,20
2016-04-08T10:24:40.974Z,20
2016-04-08T10:25:40.991Z,20
2016-04-08T10:26:41.026Z,20
2016-04-08T10:27:40.887Z,20
2016-04-08T10:28:41.077Z,20
2016-04-08T10:29:41.096Z,20
2016-04-08T10:30:41.146Z,20
2016-04-08T10:31:41.148Z,20
2016-04-08T10:32:41.181Z,20
2016-04-08T10:33:41.184Z,20
2016-04-08T10:34:41.218Z,20
2016-04-08T10:35:41.221Z,20
2016-04-08T10:36:41.270Z,20
2016-04-08T10:37:41.289Z,25
2016-04-08T10:38:41.511Z,25
2016-04-08T10:39:41.357Z,20
2016-04-08T10:40:41.359Z,20
2016-04-08T10:41:41.378Z,20
2016-04-08T10:42:41.411Z,20
2016-04-08T10:43:41.431Z,20
2016-04-08T10:44:41.855Z,20
2016-04-08T10:45:41.483Z,20
2016-04-08T10:46:41.516Z,20
2016-04-08T10:47:41.535Z,20
2016-04-08T10:48:41.569Z,20
2016-04-08T10:49:41.588Z,20
2016-04-08T10:50:41.621Z,20
2016-04-08T10:51:41.623Z,20
2016-04-08T10:52:41.658Z,20
2016-04-08T10:53:41.723Z,25
2016-04-08T10:54:41.741Z,15
2016-04-08T10:55:41.728Z,25
2016-04-08T10:56:41.746Z,25
2016-04-08T10:57:42.030Z,30
2016-04-08T10:58:41.799Z,30
2016-04-08T10:59:41.818Z,30
2016-04-08T11:00:41.848Z,30
2016-04-08T11:01:41.881Z,30
2016-04-08T11:02:42.120Z,30
2016-04-08T11:03:41.934Z,30
2016-04-08T11:04:41.952Z,35
2016-04-08T11:05:41.971Z,35
2016-04-08T11:06:42.005Z,35
2016-04-08T11:07:42.023Z,30
2016-04-08T11:08:42.041Z,30
2016-04-08T11:09:42.060Z,25
2016-04-08T11:10:42.125Z,25
2016-04-08T11:11:42.128Z,25
2016-04-08T11:12:42.146Z,25
2016-04-08T11:13:42.164Z,25
2016-04-08T11:14:41.448Z,15
2016-04-08T11:15:42.279Z,25
2016-04-08T11:16:42.250Z,25
2016-04-08T11:17:42.472Z,25
2016-04-08T11:18:42.710Z,25
2016-04-08T11:19:42.321Z,25
2016-04-08T11:20:42.355Z,25
2016-04-08T11:21:42.389Z,15
2016-04-08T11:22:42.407Z,15
2016-04-08T11:23:42.425Z,25
2016-04-08T11:24:42.460Z,25
2016-04-08T11:25:42.478Z,25
2016-04-08T11:26:42.495Z,25
2016-04-08T11:27:42.717Z,25
2016-04-08T11:28:42.548Z,25
2016-04-08T11:29:42.582Z,25
2016-04-08T11:30:42.601Z,25
2016-04-08T11:31:42.681Z,25
2016-04-08T11:32:42.856Z,20
2016-04-08T11:33:42.702Z,25
2016-04-08T11:34:42.909Z,25
2016-04-08T11:35:42.739Z,25
2016-04-08T11:36:42.758Z,25
2016-04-08T11:37:42.776Z,25
2016-04-08T11:38:42.825Z,25
2016-04-08T11:39:42.859Z,15
2016-04-08T11:40:42.862Z,10
2016-04-08T11:41:42.896Z,10
2016-04-08T11:42:42.930Z,10
2016-04-08T11:43:43.152Z,15
2016-04-08T11:44:42.966Z,20
2016-04-08T11:45:42.984Z,25
2016-04-08T11:46:43.205Z,25
2016-04-08T11:47:43.053Z,25
2016-04-08T11:48:43.055Z,25
2016-04-08T11:49:43.089Z,25
2016-04-08T11:50:43.107Z,25
2016-04-08T11:51:43.157Z,25
2016-04-08T11:52:43.426Z,30
2016-04-08T11:53:43.194Z,30
2016-04-08T11:54:43.431Z,30
2016-04-08T11:55:43.245Z,30
2016-04-08T11:56:43.280Z,35
2016-04-08T11:57:43.314Z,35
2016-04-08T11:58:43.348Z,40
2016-04-08T11:59:43.351Z,45
2016-04-08T12:00:43.384Z,50
2016-04-08T12:01:43.403Z,60
2016-04-08T12:02:43.437Z,60
2016-04-08T12:03:43.455Z,60
2016-04-08T12:04:43.489Z,65
2016-04-08T12:05:43.506Z,60
2016-04-08T12:06:43.542Z,60
2016-04-08T12:07:43.559Z,60
2016-04-08T12:08:43.599Z,55
2016-04-08T12:09:43.618Z,50
2016-04-08T12:10:43.698Z,45
2016-04-08T12:11:43.670Z,40
2016-04-08T12:12:43.704Z,35
2016-04-08T12:13:43.722Z,35
2016-04-08T12:14:43.756Z,45
2016-04-08T12:15:43.993Z,50
2016-04-08T12:16:43.808Z,55
2016-04-08T12:17:44.030Z,50
2016-04-08T12:18:43.845Z,45
2016-04-08T12:19:43.894Z,40
2016-04-08T12:20:43.913Z,35
2016-04-08T12:21:43.930Z,30
2016-04-08T12:22:44.590Z,30
2016-04-08T12:23:43.968Z,30
2016-04-08T12:24:44.204Z,25
2016-04-08T12:25:43.316Z,25
2016-04-08T12:26:44.085Z,25
2016-04-08T12:27:44.087Z,20
2016-04-08T12:28:44.137Z,25
2016-04-08T12:29:44.155Z,25
2016-04-08T12:30:44.267Z,25
2016-04-08T12:31:44.223Z,25
2016-04-08T12:32:44.242Z,25
2016-04-08T12:33:44.260Z,25
2016-04-08T12:34:44.293Z,25
2016-04-08T12:35:44.328Z,25
2016-04-08T12:36:44.378Z,25
2016-04-08T12:37:44.395Z,25
2016-04-08T12:38:44.617Z,25
2016-04-08T12:39:44.448Z,25
2016-04-08T12:40:44.481Z,25
2016-04-08T12:41:44.557Z,25
2016-04-08T12:42:44.600Z,20
2016-04-08T12:43:44.675Z,20
2016-04-08T12:44:44.749Z,20
2016-04-08T12:45:44.808Z,20
2016-04-08T12:46:44.841Z,20
2016-04-08T12:47:44.905Z,20
2016-04-08T12:48:44.953Z,20
2016-04-08T12:49:44.970Z,20
2016-04-08T12:50:45.270Z,20
2016-04-08T12:51:45.043Z,20
2016-04-08T12:52:45.083Z,20
2016-04-08T12:53:45.309Z,20
2016-04-08T12:54:45.161Z,20
2016-04-08T12:55:45.185Z,20
2016-04-08T12:56:45.205Z,20
2016-04-08T12:57:45.241Z,20
2016-04-08T12:58:45.261Z,20
2016-04-08T12:59:45.296Z,20
2016-04-08T13:00:45.317Z,20
2016-04-08T13:01:45.351Z,25
2016-04-08T13:02:45.387Z,25
2016-04-08T13:03:45.421Z,25
2016-04-08T13:04:45.457Z,25
2016-04-08T13:05:45.475Z,25
2016-04-08T13:06:45.509Z,25
2016-04-08T13:07:45.387Z,25
2016-04-08T13:08:45.561Z,25
2016-04-08T13:09:45.596Z,20
2016-04-08T13:10:45.614Z,25
2016-04-08T13:11:45.648Z,25
2016-04-08T13:12:45.870Z,25
2016-04-08T13:13:45.700Z,25
2016-04-08T13:14:45.718Z,25
2016-04-08T13:15:46.034Z,25
2016-04-08T13:16:45.787Z,20
2016-04-08T13:17:45.805Z,25
2016-04-08T13:18:45.838Z,25
2016-04-08T13:19:46.295Z,20
2016-04-08T13:20:45.938Z,20
2016-04-08T13:21:45.941Z,25
2016-04-08T13:22:45.959Z,20
2016-04-08T13:23:46.086Z,20
2016-04-08T13:24:46.011Z,25
2016-04-08T13:25:46.045Z,25
2016-04-08T13:26:46.547Z,25
2016-04-08T13:27:46.097Z,25
2016-04-08T13:28:46.130Z,20
2016-04-08T13:29:46.149Z,25
2016-04-08T13:30:46.449Z,20
2016-04-08T13:31:46.202Z,20
2016-04-08T13:32:46.439Z,25
2016-04-08T13:33:46.269Z,20
2016-04-08T13:34:46.475Z,25
2016-04-08T13:35:46.338Z,25
2016-04-08T13:36:46.356Z,25
2016-04-08T13:37:46.592Z,30
2016-04-08T13:38:46.407Z,30
2016-04-08T13:39:46.442Z,30
2016-04-08T13:40:46.476Z,25
2016-04-08T13:41:45.745Z,25
2016-04-08T13:42:46.528Z,30
2016-04-08T13:43:46.546Z,30
2016-04-08T13:44:46.596Z,25
2016-04-08T13:45:46.770Z,25
2016-04-08T13:46:46.648Z,25
2016-04-08T13:47:46.681Z,25
2016-04-08T13:48:46.700Z,25
2016-04-08T13:49:46.734Z,25
2016-04-08T13:50:46.769Z,25
2016-04-08T13:51:46.787Z,25
2016-04-08T13:52:46.820Z,20
2016-04-08T13:53:46.886Z,15
2016-04-08T13:54:46.872Z,15
2016-04-08T13:55:46.908Z,15
2016-04-08T13:56:46.925Z,15
2016-04-08T13:57:46.974Z,20
2016-04-08T13:58:47.008Z,20
2016-04-08T13:59:46.855Z,25
2016-04-08T14:00:47.060Z,25
2016-04-08T14:01:47.127Z,25
2016-04-08T14:02:47.113Z,25
2016-04-08T14:03:47.147Z,25
2016-04-08T14:04:47.181Z,25
2016-04-08T14:05:47.215Z,25
2016-04-08T14:06:47.233Z,30
2016-04-08T14:07:47.110Z,30
2016-04-08T14:08:47.301Z,25
2016-04-08T14:09:47.320Z,30
2016-04-08T14:10:47.337Z,30
2016-04-08T14:11:47.591Z,30
2016-04-08T14:12:47.421Z,30
2016-04-08T14:13:47.455Z,30
2016-04-08T14:14:47.489Z,30
2016-04-08T14:15:47.398Z,25
2016-04-08T14:16:47.526Z,25
2016-04-08T14:17:47.575Z,20
2016-04-08T14:18:47.594Z,30
2016-04-08T14:19:47.628Z,30
2016-04-08T14:20:47.662Z,30
2016-04-08T14:21:47.743Z,30
2016-04-08T14:22:47.558Z,30
2016-04-08T14:23:47.748Z,30
2016-04-08T14:24:47.750Z,30
2016-04-08T14:25:47.863Z,30
2016-04-08T14:26:48.021Z,30
2016-04-08T14:27:47.883Z,30
2016-04-08T14:28:47.917Z,30
2016-04-08T14:29:47.936Z,25
2016-04-08T14:30:47.985Z,30
2016-04-08T14:31:48.175Z,25
2016-04-08T14:32:48.007Z,25
2016-04-08T14:33:48.040Z,30
2016-04-08T14:34:48.074Z,25